sensor_id;sensor_type;location;lat;lon;timestamp;pressure;altitude;pressure_sealevel;temperature;humidity
19596;BME280;9945;46.010;8.946;2023-02-04T00:02:25;97623.34;;;15.66;32.25
19596;BME280;9945;46.010;8.946;2023-02-04T00:04:52;97617.91;;;15.67;32.14
19596;BME280;9945;46.010;8.946;2023-02-04T00:07:21;97616.63;;;15.63;32.21
19596;BME280;9945;46.010;8.946;2023-02-04T00:09:47;97621.03;;;15.71;32.32
19596;BME280;9945;46.010;8.946;2023-02-04T00:12:15;97621.53;;;15.66;32.35
19596;BME280;9945;46.010;8.946;2023-02-04T00:14:42;97619.06;;;15.73;31.88
19596;BME280;9945;46.010;8.946;2023-02-04T00:17:09;97623.16;;;15.75;32.45
19596;BME280;9945;46.010;8.946;2023-02-04T00:19:38;97621.22;;;15.69;32.23
19596;BME280;9945;46.010;8.946;2023-02-04T00:22:05;97608.31;;;15.74;32.72
19596;BME280;9945;46.010;8.946;2023-02-04T00:24:34;97613.13;;;15.71;31.86
19596;BME280;9945;46.010;8.946;2023-02-04T00:27:01;97606.34;;;15.68;32.91
19596;BME280;9945;46.010;8.946;2023-02-04T00:29:28;97607.84;;;15.71;32.96
19596;BME280;9945;46.010;8.946;2023-02-04T00:31:55;97609.94;;;15.83;32.73
19596;BME280;9945;46.010;8.946;2023-02-04T00:34:22;97602.00;;;15.83;32.33
19596;BME280;9945;46.010;8.946;2023-02-04T00:36:49;97601.84;;;15.85;32.18
19596;BME280;9945;46.010;8.946;2023-02-04T00:39:16;97595.72;;;15.84;31.40
19596;BME280;9945;46.010;8.946;2023-02-04T00:41:44;97601.53;;;15.80;31.69
19596;BME280;9945;46.010;8.946;2023-02-04T00:44:11;97586.84;;;15.77;32.36
19596;BME280;9945;46.010;8.946;2023-02-04T00:46:38;97594.59;;;15.79;31.96
19596;BME280;9945;46.010;8.946;2023-02-04T00:49:05;97589.00;;;15.82;32.49
19596;BME280;9945;46.010;8.946;2023-02-04T00:51:35;97585.50;;;15.89;32.08
19596;BME280;9945;46.010;8.946;2023-02-04T00:54:03;97588.47;;;15.86;31.71
19596;BME280;9945;46.010;8.946;2023-02-04T00:56:30;97578.25;;;15.83;31.99
19596;BME280;9945;46.010;8.946;2023-02-04T00:58:58;97572.78;;;15.85;32.20
19596;BME280;9945;46.010;8.946;2023-02-04T01:01:25;97575.59;;;15.83;32.02
19596;BME280;9945;46.010;8.946;2023-02-04T01:03:52;97573.94;;;15.82;31.92
19596;BME280;9945;46.010;8.946;2023-02-04T01:06:19;97559.25;;;15.88;31.39
19596;BME280;9945;46.010;8.946;2023-02-04T01:08:46;97562.09;;;15.78;31.60
19596;BME280;9945;46.010;8.946;2023-02-04T01:11:12;97562.59;;;15.74;31.81
19596;BME280;9945;46.010;8.946;2023-02-04T01:13:39;97563.09;;;15.77;31.53
19596;BME280;9945;46.010;8.946;2023-02-04T01:16:08;97552.69;;;15.76;32.01
19596;BME280;9945;46.010;8.946;2023-02-04T01:18:35;97564.03;;;15.84;32.22
19596;BME280;9945;46.010;8.946;2023-02-04T01:21:02;97544.81;;;16.07;31.29
19596;BME280;9945;46.010;8.946;2023-02-04T01:23:29;97553.13;;;16.18;30.58
19596;BME280;9945;46.010;8.946;2023-02-04T01:25:56;97548.50;;;16.20;31.38
19596;BME280;9945;46.010;8.946;2023-02-04T01:28:23;97555.53;;;16.05;30.91
19596;BME280;9945;46.010;8.946;2023-02-04T01:30:50;97533.34;;;16.14;31.80
19596;BME280;9945;46.010;8.946;2023-02-04T01:33:18;97538.16;;;16.11;31.69
19596;BME280;9945;46.010;8.946;2023-02-04T01:35:45;97544.25;;;16.11;31.28
19596;BME280;9945;46.010;8.946;2023-02-04T01:38:11;97545.09;;;16.12;31.56
19596;BME280;9945;46.010;8.946;2023-02-04T01:40:39;97546.41;;;16.08;31.39
19596;BME280;9945;46.010;8.946;2023-02-04T01:43:06;97547.25;;;16.08;31.78
19596;BME280;9945;46.010;8.946;2023-02-04T01:45:33;97543.94;;;16.14;31.74
19596;BME280;9945;46.010;8.946;2023-02-04T01:48:01;97546.03;;;16.19;31.64
19596;BME280;9945;46.010;8.946;2023-02-04T01:50:30;97560.59;;;16.15;31.24
19596;BME280;9945;46.010;8.946;2023-02-04T01:52:58;97544.97;;;16.28;31.29
19596;BME280;9945;46.010;8.946;2023-02-04T01:55:28;97550.38;;;16.35;30.92
19596;BME280;9945;46.010;8.946;2023-02-04T01:57:55;97543.50;;;16.25;31.60
19596;BME280;9945;46.010;8.946;2023-02-04T02:00:26;97540.91;;;16.17;31.25
19596;BME280;9945;46.010;8.946;2023-02-04T02:02:53;97551.31;;;16.19;32.05
19596;BME280;9945;46.010;8.946;2023-02-04T02:05:23;97546.69;;;16.21;31.41
19596;BME280;9945;46.010;8.946;2023-02-04T02:07:53;97546.81;;;16.27;31.41
19596;BME280;9945;46.010;8.946;2023-02-04T02:10:22;97550.09;;;16.30;31.81
19596;BME280;9945;46.010;8.946;2023-02-04T02:12:49;97548.28;;;16.30;32.52
19596;BME280;9945;46.010;8.946;2023-02-04T02:15:17;97539.41;;;16.23;33.06
19596;BME280;9945;46.010;8.946;2023-02-04T02:17:44;97547.97;;;16.25;32.83
19596;BME280;9945;46.010;8.946;2023-02-04T02:20:13;97539.59;;;16.21;31.80
19596;BME280;9945;46.010;8.946;2023-02-04T02:22:46;97530.13;;;16.27;32.97
19596;BME280;9945;46.010;8.946;2023-02-04T02:25:16;97528.91;;;16.38;32.02
19596;BME280;9945;46.010;8.946;2023-02-04T02:27:43;97525.59;;;16.36;33.25
19596;BME280;9945;46.010;8.946;2023-02-04T02:30:11;97524.50;;;16.30;32.62
19596;BME280;9945;46.010;8.946;2023-02-04T02:32:39;97525.09;;;16.40;32.68
19596;BME280;9945;46.010;8.946;2023-02-04T02:35:07;97515.78;;;16.44;32.32
19596;BME280;9945;46.010;8.946;2023-02-04T02:37:34;97514.63;;;16.47;33.39
19596;BME280;9945;46.010;8.946;2023-02-04T02:40:01;97517.72;;;16.50;32.14
19596;BME280;9945;46.010;8.946;2023-02-04T02:42:30;97519.91;;;16.47;32.17
19596;BME280;9945;46.010;8.946;2023-02-04T02:44:58;97503.50;;;16.51;32.75
19596;BME280;9945;46.010;8.946;2023-02-04T02:47:25;97502.50;;;16.52;32.29
19596;BME280;9945;46.010;8.946;2023-02-04T02:49:53;97491.47;;;16.49;32.86
19596;BME280;9945;46.010;8.946;2023-02-04T02:52:21;97500.59;;;16.46;32.09
19596;BME280;9945;46.010;8.946;2023-02-04T02:54:48;97499.75;;;16.46;32.66
19596;BME280;9945;46.010;8.946;2023-02-04T02:57:18;97502.63;;;16.36;32.82
19596;BME280;9945;46.010;8.946;2023-02-04T02:59:48;97491.25;;;16.36;33.71
19596;BME280;9945;46.010;8.946;2023-02-04T03:02:17;97491.78;;;16.31;32.72
19596;BME280;9945;46.010;8.946;2023-02-04T03:04:49;97507.59;;;16.39;32.80
19596;BME280;9945;46.010;8.946;2023-02-04T03:07:19;97495.78;;;16.27;33.17
19596;BME280;9945;46.010;8.946;2023-02-04T03:09:47;97503.34;;;16.30;33.35
19596;BME280;9945;46.010;8.946;2023-02-04T03:12:15;97500.72;;;16.30;32.82
19596;BME280;9945;46.010;8.946;2023-02-04T03:14:42;97496.09;;;16.32;33.36
19596;BME280;9945;46.010;8.946;2023-02-04T03:17:11;97493.59;;;16.31;33.59
19596;BME280;9945;46.010;8.946;2023-02-04T03:19:38;97483.16;;;16.37;33.11
19596;BME280;9945;46.010;8.946;2023-02-04T03:22:06;97481.50;;;16.36;32.99
19596;BME280;9945;46.010;8.946;2023-02-04T03:24:33;97476.88;;;16.38;34.26
19596;BME280;9945;46.010;8.946;2023-02-04T03:27:00;97473.13;;;16.33;34.22
19596;BME280;9945;46.010;8.946;2023-02-04T03:29:27;97483.34;;;16.13;34.14
19596;BME280;9945;46.010;8.946;2023-02-04T03:31:54;97486.84;;;16.05;34.38
19596;BME280;9945;46.010;8.946;2023-02-04T03:34:25;97483.03;;;16.08;33.70
19596;BME280;9945;46.010;8.946;2023-02-04T03:36:52;97481.13;;;15.94;34.39
19596;BME280;9945;46.010;8.946;2023-02-04T03:39:19;97480.50;;;15.92;34.30
19596;BME280;9945;46.010;8.946;2023-02-04T03:41:46;97478.88;;;15.91;35.02
19596;BME280;9945;46.010;8.946;2023-02-04T03:44:13;97473.84;;;15.73;34.51
19596;BME280;9945;46.010;8.946;2023-02-04T03:46:40;97481.59;;;15.74;35.18
19596;BME280;9945;46.010;8.946;2023-02-04T03:49:07;97474.75;;;15.57;35.02
19596;BME280;9945;46.010;8.946;2023-02-04T03:51:35;97478.88;;;15.51;35.32
19596;BME280;9945;46.010;8.946;2023-02-04T03:54:02;97461.78;;;15.39;35.59
19596;BME280;9945;46.010;8.946;2023-02-04T03:56:29;97475.78;;;15.48;34.61
19596;BME280;9945;46.010;8.946;2023-02-04T03:58:56;97479.03;;;15.58;34.84
19596;BME280;9945;46.010;8.946;2023-02-04T04:01:22;97479.69;;;15.52;35.16
19596;BME280;9945;46.010;8.946;2023-02-04T04:03:49;97471.81;;;15.44;35.49
19596;BME280;9945;46.010;8.946;2023-02-04T04:06:16;97475.97;;;15.38;35.16
19596;BME280;9945;46.010;8.946;2023-02-04T04:08:44;97471.19;;;15.34;35.55
19596;BME280;9945;46.010;8.946;2023-02-04T04:11:11;97461.59;;;15.41;35.33
19596;BME280;9945;46.010;8.946;2023-02-04T04:13:38;97466.25;;;15.39;35.26
19596;BME280;9945;46.010;8.946;2023-02-04T04:16:05;97465.28;;;15.24;35.28
19596;BME280;9945;46.010;8.946;2023-02-04T04:18:33;97469.91;;;15.30;35.12
19596;BME280;9945;46.010;8.946;2023-02-04T04:21:01;97458.56;;;15.21;35.67
19596;BME280;9945;46.010;8.946;2023-02-04T04:23:28;97451.63;;;15.20;35.90
19596;BME280;9945;46.010;8.946;2023-02-04T04:25:56;97465.13;;;15.25;35.38
19596;BME280;9945;46.010;8.946;2023-02-04T04:28:23;97461.38;;;15.20;36.19
19596;BME280;9945;46.010;8.946;2023-02-04T04:30:50;97463.34;;;15.18;35.48
19596;BME280;9945;46.010;8.946;2023-02-04T04:33:17;97462.38;;;15.10;35.94
19596;BME280;9945;46.010;8.946;2023-02-04T04:35:43;97469.44;;;15.18;35.66
19596;BME280;9945;46.010;8.946;2023-02-04T04:38:10;97453.97;;;15.07;35.74
19596;BME280;9945;46.010;8.946;2023-02-04T04:40:37;97451.38;;;14.99;35.95
19596;BME280;9945;46.010;8.946;2023-02-04T04:43:05;97460.09;;;14.99;35.99
19596;BME280;9945;46.010;8.946;2023-02-04T04:45:32;97455.84;;;14.90;36.46
19596;BME280;9945;46.010;8.946;2023-02-04T04:47:59;97447.09;;;14.90;36.28
19596;BME280;9945;46.010;8.946;2023-02-04T04:50:26;97457.50;;;14.83;35.90
19596;BME280;9945;46.010;8.946;2023-02-04T04:52:53;97452.22;;;14.91;35.98
19596;BME280;9945;46.010;8.946;2023-02-04T04:55:20;97465.09;;;14.86;36.12
19596;BME280;9945;46.010;8.946;2023-02-04T04:57:47;97475.94;;;14.91;36.93
19596;BME280;9945;46.010;8.946;2023-02-04T05:00:17;97477.59;;;14.92;35.81
19596;BME280;9945;46.010;8.946;2023-02-04T05:02:45;97447.59;;;15.01;35.93
19596;BME280;9945;46.010;8.946;2023-02-04T05:05:12;97440.69;;;14.92;36.00
19596;BME280;9945;46.010;8.946;2023-02-04T05:07:39;97464.91;;;14.96;35.55
19596;BME280;9945;46.010;8.946;2023-02-04T05:10:08;97464.72;;;15.05;35.49
19596;BME280;9945;46.010;8.946;2023-02-04T05:12:35;97467.97;;;15.15;35.31
19596;BME280;9945;46.010;8.946;2023-02-04T05:15:03;97480.31;;;15.15;35.44
19596;BME280;9945;46.010;8.946;2023-02-04T05:17:31;97479.16;;;15.18;35.59
19596;BME280;9945;46.010;8.946;2023-02-04T05:19:58;97476.69;;;15.16;35.46
19596;BME280;9945;46.010;8.946;2023-02-04T05:22:25;97471.59;;;15.14;34.52
19596;BME280;9945;46.010;8.946;2023-02-04T05:24:51;97462.56;;;15.09;35.19
19596;BME280;9945;46.010;8.946;2023-02-04T05:27:18;97474.72;;;15.18;34.68
19596;BME280;9945;46.010;8.946;2023-02-04T05:29:45;97489.53;;;15.27;34.47
19596;BME280;9945;46.010;8.946;2023-02-04T05:32:12;97488.53;;;15.28;34.13
19596;BME280;9945;46.010;8.946;2023-02-04T05:34:40;97495.75;;;15.34;34.36
19596;BME280;9945;46.010;8.946;2023-02-04T05:37:07;97498.91;;;15.38;34.27
19596;BME280;9945;46.010;8.946;2023-02-04T05:39:34;97494.28;;;15.32;34.67
19596;BME280;9945;46.010;8.946;2023-02-04T05:42:01;97496.44;;;15.36;34.64
19596;BME280;9945;46.010;8.946;2023-02-04T05:44:28;97488.63;;;15.43;34.04
19596;BME280;9945;46.010;8.946;2023-02-04T05:46:55;97502.78;;;15.58;33.75
19596;BME280;9945;46.010;8.946;2023-02-04T05:49:22;97506.41;;;15.57;33.33
19596;BME280;9945;46.010;8.946;2023-02-04T05:51:50;97510.38;;;15.53;33.55
19596;BME280;9945;46.010;8.946;2023-02-04T05:54:17;97512.22;;;15.44;34.31
19596;BME280;9945;46.010;8.946;2023-02-04T05:56:45;97506.63;;;15.47;33.60
19596;BME280;9945;46.010;8.946;2023-02-04T05:59:12;97507.78;;;15.45;34.15
19596;BME280;9945;46.010;8.946;2023-02-04T06:01:39;97518.00;;;15.40;34.26
19596;BME280;9945;46.010;8.946;2023-02-04T06:04:06;97499.53;;;15.40;33.80
19596;BME280;9945;46.010;8.946;2023-02-04T06:06:33;97506.81;;;15.38;34.08
19596;BME280;9945;46.010;8.946;2023-02-04T06:09:01;97500.03;;;15.43;33.44
19596;BME280;9945;46.010;8.946;2023-02-04T06:11:28;97515.03;;;15.43;34.43
19596;BME280;9945;46.010;8.946;2023-02-04T06:13:55;97513.75;;;15.39;33.80
19596;BME280;9945;46.010;8.946;2023-02-04T06:16:22;97514.06;;;15.36;34.26
19596;BME280;9945;46.010;8.946;2023-02-04T06:18:49;97527.44;;;15.26;34.57
19596;BME280;9945;46.010;8.946;2023-02-04T06:21:16;97511.63;;;15.26;34.23
19596;BME280;9945;46.010;8.946;2023-02-04T06:23:43;97521.50;;;15.24;34.49
19596;BME280;9945;46.010;8.946;2023-02-04T06:26:11;97520.66;;;15.32;33.80
19596;BME280;9945;46.010;8.946;2023-02-04T06:28:38;97529.59;;;15.31;33.85
19596;BME280;9945;46.010;8.946;2023-02-04T06:31:05;97535.50;;;15.33;34.30
19596;BME280;9945;46.010;8.946;2023-02-04T06:33:34;97538.53;;;15.13;33.64
19596;BME280;9945;46.010;8.946;2023-02-04T06:36:01;97534.06;;;15.22;34.50
19596;BME280;9945;46.010;8.946;2023-02-04T06:38:28;97546.09;;;15.25;34.09
19596;BME280;9945;46.010;8.946;2023-02-04T06:40:55;97546.75;;;15.27;33.97
19596;BME280;9945;46.010;8.946;2023-02-04T06:43:23;97557.13;;;15.28;34.24
19596;BME280;9945;46.010;8.946;2023-02-04T06:45:52;97558.63;;;15.31;33.97
19596;BME280;9945;46.010;8.946;2023-02-04T06:48:18;97550.88;;;15.29;34.63
19596;BME280;9945;46.010;8.946;2023-02-04T06:50:45;97550.69;;;15.23;34.81
19596;BME280;9945;46.010;8.946;2023-02-04T06:53:12;97557.63;;;15.24;34.79
19596;BME280;9945;46.010;8.946;2023-02-04T06:55:39;97557.97;;;15.21;35.20
19596;BME280;9945;46.010;8.946;2023-02-04T06:58:06;97558.47;;;15.16;34.91
19596;BME280;9945;46.010;8.946;2023-02-04T07:00:34;97563.13;;;15.14;34.85
19596;BME280;9945;46.010;8.946;2023-02-04T07:03:01;97567.03;;;15.18;34.78
19596;BME280;9945;46.010;8.946;2023-02-04T07:05:28;97549.91;;;15.22;34.68
19596;BME280;9945;46.010;8.946;2023-02-04T07:07:56;97555.66;;;15.26;34.69
19596;BME280;9945;46.010;8.946;2023-02-04T07:10:22;97552.34;;;15.24;34.46
19596;BME280;9945;46.010;8.946;2023-02-04T07:12:49;97547.72;;;15.26;34.49
19596;BME280;9945;46.010;8.946;2023-02-04T07:15:16;97553.97;;;15.33;34.05
19596;BME280;9945;46.010;8.946;2023-02-04T07:17:44;97568.66;;;15.35;34.04
19596;BME280;9945;46.010;8.946;2023-02-04T07:20:11;97566.16;;;15.42;34.05
19596;BME280;9945;46.010;8.946;2023-02-04T07:22:38;97562.66;;;15.58;33.75
19596;BME280;9945;46.010;8.946;2023-02-04T07:25:06;97576.03;;;15.64;33.32
19596;BME280;9945;46.010;8.946;2023-02-04T07:27:33;97567.09;;;15.65;32.89
19596;BME280;9945;46.010;8.946;2023-02-04T07:30:00;97569.91;;;15.72;34.18
19596;BME280;9945;46.010;8.946;2023-02-04T07:32:27;97565.94;;;15.68;34.01
19596;BME280;9945;46.010;8.946;2023-02-04T07:34:58;97569.91;;;15.72;34.36
19596;BME280;9945;46.010;8.946;2023-02-04T07:37:25;97573.97;;;15.74;33.98
19596;BME280;9945;46.010;8.946;2023-02-04T07:39:52;97570.66;;;15.88;33.56
19596;BME280;9945;46.010;8.946;2023-02-04T07:42:19;97570.91;;;16.02;32.98
19596;BME280;9945;46.010;8.946;2023-02-04T07:44:46;97574.25;;;16.18;33.60
19596;BME280;9945;46.010;8.946;2023-02-04T07:47:13;97573.81;;;16.38;33.66
19596;BME280;9945;46.010;8.946;2023-02-04T07:49:40;97566.88;;;16.59;33.32
19596;BME280;9945;46.010;8.946;2023-02-04T07:52:08;97577.19;;;16.77;31.71
19596;BME280;9945;46.010;8.946;2023-02-04T07:54:35;97577.69;;;16.95;33.14
19596;BME280;9945;46.010;8.946;2023-02-04T07:57:02;97584.63;;;17.34;32.80
19596;BME280;9945;46.010;8.946;2023-02-04T07:59:28;97594.78;;;17.60;32.51
19596;BME280;9945;46.010;8.946;2023-02-04T08:01:55;97584.38;;;17.88;32.37
19596;BME280;9945;46.010;8.946;2023-02-04T08:04:22;97582.69;;;18.16;31.39
19596;BME280;9945;46.010;8.946;2023-02-04T08:06:49;97585.88;;;18.47;30.07
19596;BME280;9945;46.010;8.946;2023-02-04T08:09:17;97591.66;;;18.72;29.99
19596;BME280;9945;46.010;8.946;2023-02-04T08:11:44;97593.53;;;19.00;30.69
19596;BME280;9945;46.010;8.946;2023-02-04T08:14:11;97591.06;;;19.19;30.39
19596;BME280;9945;46.010;8.946;2023-02-04T08:16:38;97599.28;;;19.31;30.14
19596;BME280;9945;46.010;8.946;2023-02-04T08:19:05;97597.38;;;19.46;30.10
19596;BME280;9945;46.010;8.946;2023-02-04T08:21:32;97601.78;;;19.60;30.05
19596;BME280;9945;46.010;8.946;2023-02-04T08:23:58;97616.41;;;19.84;29.51
19596;BME280;9945;46.010;8.946;2023-02-04T08:26:27;97619.41;;;20.09;28.78
19596;BME280;9945;46.010;8.946;2023-02-04T08:28:53;97617.28;;;20.32;28.81
19596;BME280;9945;46.010;8.946;2023-02-04T08:31:20;97612.66;;;20.61;28.04
19596;BME280;9945;46.010;8.946;2023-02-04T08:33:47;97617.84;;;20.89;27.24
19596;BME280;9945;46.010;8.946;2023-02-04T08:36:14;97618.69;;;21.09;27.31
19596;BME280;9945;46.010;8.946;2023-02-04T08:38:41;97613.19;;;21.24;26.89
19596;BME280;9945;46.010;8.946;2023-02-04T08:41:09;97625.06;;;21.41;26.10
19596;BME280;9945;46.010;8.946;2023-02-04T08:43:37;97646.56;;;21.59;26.12
19596;BME280;9945;46.010;8.946;2023-02-04T08:46:04;97648.22;;;21.60;25.94
19596;BME280;9945;46.010;8.946;2023-02-04T08:48:31;97641.63;;;21.63;25.55
19596;BME280;9945;46.010;8.946;2023-02-04T08:50:57;97644.09;;;21.77;26.05
19596;BME280;9945;46.010;8.946;2023-02-04T08:53:24;97644.03;;;21.90;25.45
19596;BME280;9945;46.010;8.946;2023-02-04T08:55:51;97640.34;;;22.11;24.95
19596;BME280;9945;46.010;8.946;2023-02-04T08:58:18;97625.25;;;22.37;25.40
19596;BME280;9945;46.010;8.946;2023-02-04T09:00:46;97641.19;;;22.50;25.07
19596;BME280;9945;46.010;8.946;2023-02-04T09:03:13;97633.50;;;22.67;24.80
19596;BME280;9945;46.010;8.946;2023-02-04T09:05:40;97643.28;;;22.86;24.87
19596;BME280;9945;46.010;8.946;2023-02-04T09:08:07;97648.44;;;22.81;24.46
19596;BME280;9945;46.010;8.946;2023-02-04T09:10:34;97654.75;;;22.93;24.19
19596;BME280;9945;46.010;8.946;2023-02-04T09:13:01;97661.47;;;23.02;24.14
19596;BME280;9945;46.010;8.946;2023-02-04T09:15:28;97659.91;;;23.44;23.89
19596;BME280;9945;46.010;8.946;2023-02-04T09:17:56;97665.59;;;23.79;23.37
19596;BME280;9945;46.010;8.946;2023-02-04T09:20:29;97674.56;;;24.46;22.89
19596;BME280;9945;46.010;8.946;2023-02-04T09:22:56;97662.75;;;24.54;22.70
19596;BME280;9945;46.010;8.946;2023-02-04T09:25:23;97669.84;;;25.49;22.02
19596;BME280;9945;46.010;8.946;2023-02-04T09:27:49;97674.44;;;26.99;20.20
19596;BME280;9945;46.010;8.946;2023-02-04T09:30:17;97671.75;;;26.59;20.30
19596;BME280;9945;46.010;8.946;2023-02-04T09:32:43;97679.13;;;27.20;19.67
19596;BME280;9945;46.010;8.946;2023-02-04T09:35:12;97684.56;;;27.08;20.31
19596;BME280;9945;46.010;8.946;2023-02-04T09:37:38;97680.03;;;28.48;18.96
19596;BME280;9945;46.010;8.946;2023-02-04T09:40:06;97693.69;;;28.85;19.00
19596;BME280;9945;46.010;8.946;2023-02-04T09:42:33;97699.50;;;29.52;18.40
19596;BME280;9945;46.010;8.946;2023-02-04T09:45:00;97704.22;;;29.67;16.91
19596;BME280;9945;46.010;8.946;2023-02-04T09:47:28;97710.03;;;30.18;16.84
19596;BME280;9945;46.010;8.946;2023-02-04T09:49:55;97718.03;;;31.22;16.84
19596;BME280;9945;46.010;8.946;2023-02-04T09:52:24;97728.41;;;32.01;15.77
19596;BME280;9945;46.010;8.946;2023-02-04T09:54:53;97724.25;;;33.97;14.25
19596;BME280;9945;46.010;8.946;2023-02-04T09:57:19;97729.03;;;35.29;14.20
19596;BME280;9945;46.010;8.946;2023-02-04T09:59:46;97724.97;;;36.29;12.73
19596;BME280;9945;46.010;8.946;2023-02-04T10:02:23;97740.94;;;36.35;12.84
19596;BME280;9945;46.010;8.946;2023-02-04T10:04:51;97741.53;;;37.01;12.63
19596;BME280;9945;46.010;8.946;2023-02-04T10:07:23;97741.34;;;37.11;12.01
19596;BME280;9945;46.010;8.946;2023-02-04T10:09:52;97751.28;;;37.07;12.11
19596;BME280;9945;46.010;8.946;2023-02-04T10:12:20;97752.31;;;37.83;11.79
19596;BME280;9945;46.010;8.946;2023-02-04T10:14:47;97759.44;;;38.15;11.50
19596;BME280;9945;46.010;8.946;2023-02-04T10:17:18;97747.44;;;38.95;11.38
19596;BME280;9945;46.010;8.946;2023-02-04T10:19:47;97744.56;;;38.60;11.43
19596;BME280;9945;46.010;8.946;2023-02-04T10:22:18;97756.88;;;39.54;10.87
19596;BME280;9945;46.010;8.946;2023-02-04T10:24:47;97757.13;;;39.10;11.01
19596;BME280;9945;46.010;8.946;2023-02-04T10:27:14;97765.13;;;39.54;10.60
19596;BME280;9945;46.010;8.946;2023-02-04T10:29:42;97763.03;;;39.86;10.64
19596;BME280;9945;46.010;8.946;2023-02-04T10:32:26;97763.31;;;40.65;100.00
19596;BME280;9945;46.010;8.946;2023-02-04T10:34:56;63067.16;;;-143.83;100.00
19596;BME280;9945;46.010;8.946;2023-02-04T10:37:23;63067.16;;;-143.83;100.00
19596;BME280;9945;46.010;8.946;2023-02-04T10:39:51;63067.16;;;-143.83;100.00
19596;BME280;9945;46.010;8.946;2023-02-04T10:42:21;63067.16;;;-143.83;100.00
19596;BME280;9945;46.010;8.946;2023-02-04T10:44:48;63067.16;;;-143.83;100.00
19596;BME280;9945;46.010;8.946;2023-02-04T10:47:17;63067.16;;;-143.83;100.00
19596;BME280;9945;46.010;8.946;2023-02-04T10:49:55;63067.16;;;-143.83;100.00
19596;BME280;9945;46.010;8.946;2023-02-04T10:52:27;63067.16;;;-143.83;100.00
19596;BME280;9945;46.010;8.946;2023-02-04T10:54:58;63067.16;;;-143.83;100.00
19596;BME280;9945;46.010;8.946;2023-02-04T10:57:26;63067.16;;;-143.83;100.00
19596;BME280;9945;46.010;8.946;2023-02-04T10:59:56;63067.16;;;-143.83;100.00
19596;BME280;9945;46.010;8.946;2023-02-04T11:02:42;63067.16;;;-143.83;100.00
19596;BME280;9945;46.010;8.946;2023-02-04T11:05:15;63067.16;;;-143.83;100.00
19596;BME280;9945;46.010;8.946;2023-02-04T11:07:43;63067.16;;;-143.83;100.00
19596;BME280;9945;46.010;8.946;2023-02-04T11:10:14;63067.16;;;-143.83;100.00
19596;BME280;9945;46.010;8.946;2023-02-04T11:12:43;63067.16;;;-143.83;100.00
19596;BME280;9945;46.010;8.946;2023-02-04T11:15:36;63067.16;;;-143.83;100.00
19596;BME280;9945;46.010;8.946;2023-02-04T11:18:05;63067.16;;;-143.83;100.00
19596;BME280;9945;46.010;8.946;2023-02-04T11:20:33;63067.16;;;-143.83;100.00
19596;BME280;9945;46.010;8.946;2023-02-04T11:23:29;63067.16;;;-143.83;100.00
19596;BME280;9945;46.010;8.946;2023-02-04T11:26:31;63067.16;;;-143.83;100.00
19596;BME280;9945;46.010;8.946;2023-02-04T11:29:23;63067.16;;;-143.83;100.00
19596;BME280;9945;46.010;8.946;2023-02-04T11:32:00;63067.16;;;-143.83;100.00
19596;BME280;9945;46.010;8.946;2023-02-04T11:37:37;63067.16;;;-143.83;100.00
19596;BME280;9945;46.010;8.946;2023-02-04T11:40:29;63067.16;;;-143.83;100.00
19596;BME280;9945;46.010;8.946;2023-02-04T11:43:02;63067.16;;;-143.83;100.00
19596;BME280;9945;46.010;8.946;2023-02-04T11:45:35;63067.16;;;-143.83;100.00
19596;BME280;9945;46.010;8.946;2023-02-04T11:48:10;63067.16;;;-143.83;100.00
19596;BME280;9945;46.010;8.946;2023-02-04T11:50:38;63067.16;;;-143.83;100.00
19596;BME280;9945;46.010;8.946;2023-02-04T11:53:09;63067.16;;;-143.83;100.00
19596;BME280;9945;46.010;8.946;2023-02-04T11:55:43;63067.16;;;-143.83;100.00
19596;BME280;9945;46.010;8.946;2023-02-04T11:58:13;63067.16;;;-143.83;100.00
19596;BME280;9945;46.010;8.946;2023-02-04T12:00:40;63067.16;;;-143.83;100.00
19596;BME280;9945;46.010;8.946;2023-02-04T12:03:21;63067.16;;;-143.83;100.00
19596;BME280;9945;46.010;8.946;2023-02-04T12:05:49;63067.16;;;-143.83;100.00
19596;BME280;9945;46.010;8.946;2023-02-04T12:08:28;63067.16;;;-143.83;100.00
19596;BME280;9945;46.010;8.946;2023-02-04T12:11:02;63067.16;;;-143.83;100.00
19596;BME280;9945;46.010;8.946;2023-02-04T12:13:31;63067.16;;;-143.83;100.00
19596;BME280;9945;46.010;8.946;2023-02-04T12:16:00;63067.16;;;-143.83;100.00
19596;BME280;9945;46.010;8.946;2023-02-04T12:18:27;63067.16;;;-143.83;100.00
19596;BME280;9945;46.010;8.946;2023-02-04T12:20:55;63067.16;;;-143.83;100.00
19596;BME280;9945;46.010;8.946;2023-02-04T12:23:23;63067.16;;;-143.83;100.00
19596;BME280;9945;46.010;8.946;2023-02-04T12:25:50;63067.16;;;-143.83;100.00
19596;BME280;9945;46.010;8.946;2023-02-04T12:28:17;63067.16;;;-143.83;100.00
19596;BME280;9945;46.010;8.946;2023-02-04T12:30:45;63067.16;;;-143.83;100.00
19596;BME280;9945;46.010;8.946;2023-02-04T12:33:13;63067.16;;;-143.83;100.00
19596;BME280;9945;46.010;8.946;2023-02-04T12:35:40;63067.16;;;-143.83;100.00
19596;BME280;9945;46.010;8.946;2023-02-04T12:38:07;63067.16;;;-143.83;100.00
19596;BME280;9945;46.010;8.946;2023-02-04T12:40:35;63067.16;;;-143.83;100.00
19596;BME280;9945;46.010;8.946;2023-02-04T12:43:02;63067.16;;;-143.83;100.00
19596;BME280;9945;46.010;8.946;2023-02-04T12:45:29;63067.16;;;-143.83;100.00
19596;BME280;9945;46.010;8.946;2023-02-04T12:47:57;63067.16;;;-143.83;100.00
19596;BME280;9945;46.010;8.946;2023-02-04T12:50:24;63067.16;;;-143.83;100.00
19596;BME280;9945;46.010;8.946;2023-02-04T12:52:52;63067.16;;;-143.83;100.00
19596;BME280;9945;46.010;8.946;2023-02-04T12:55:19;63067.16;;;-143.83;100.00
19596;BME280;9945;46.010;8.946;2023-02-04T12:57:47;63067.16;;;-143.83;100.00
19596;BME280;9945;46.010;8.946;2023-02-04T13:00:15;63067.16;;;-143.83;100.00
19596;BME280;9945;46.010;8.946;2023-02-04T13:02:43;63067.16;;;-143.83;100.00
19596;BME280;9945;46.010;8.946;2023-02-04T13:05:12;63067.16;;;-143.83;100.00
19596;BME280;9945;46.010;8.946;2023-02-04T13:07:39;63067.16;;;-143.83;100.00
19596;BME280;9945;46.010;8.946;2023-02-04T13:10:07;63067.16;;;-143.83;100.00
19596;BME280;9945;46.010;8.946;2023-02-04T13:12:34;63067.16;;;-143.83;100.00
19596;BME280;9945;46.010;8.946;2023-02-04T13:15:01;63067.16;;;-143.83;100.00